createdAt,value
2017-07-08T00:00:02.117Z,22.60
2017-07-08T00:00:06.371Z,22.53
2017-07-08T00:00:10.624Z,22.50
2017-07-08T00:00:14.932Z,22.40
2017-07-08T00:00:19.208Z,22.30
2017-07-08T00:00:23.489Z,22.50
2017-07-08T00:00:27.768Z,22.55
2017-07-08T00:00:32.044Z,22.45
2017-07-08T00:00:36.326Z,22.45
2017-07-08T00:00:40.613Z,22.30
2017-07-08T00:00:44.909Z,22.37
2017-07-08T00:00:49.158Z,22.15
2017-07-08T00:00:53.408Z,22.10
2017-07-08T00:00:57.719Z,22.17
2017-07-08T00:01:01.991Z,22.05
2017-07-08T00:01:06.265Z,22.00
2017-07-08T00:01:10.535Z,21.90
2017-07-08T00:01:14.791Z,21.87
2017-07-08T00:01:19.066Z,21.90
2017-07-08T00:01:23.345Z,21.95
2017-07-08T00:01:27.606Z,21.73
2017-07-08T00:01:32.072Z,21.85
2017-07-08T00:01:36.377Z,21.75
2017-07-08T00:01:40.663Z,21.87
2017-07-08T00:01:44.939Z,21.90
2017-07-08T00:01:49.220Z,22.15
2017-07-08T00:01:53.482Z,22.13
2017-07-08T00:01:57.778Z,22.10
2017-07-08T00:02:02.026Z,22.40
2017-07-08T00:02:06.296Z,22.85
2017-07-08T00:02:10.574Z,22.90
2017-07-08T00:02:14.874Z,22.90
2017-07-08T00:02:19.145Z,22.90
2017-07-08T00:02:23.404Z,23.03
2017-07-08T00:02:28.469Z,23.10
2017-07-08T00:02:32.752Z,23.00
2017-07-08T00:02:37.008Z,23.10
2017-07-08T00:02:41.303Z,22.80
2017-07-08T00:02:45.581Z,22.70
2017-07-08T00:02:49.835Z,22.55
2017-07-08T00:02:54.100Z,23.00
2017-07-08T00:02:58.399Z,23.07
2017-07-08T00:03:02.647Z,23.00
2017-07-08T00:03:06.913Z,22.90
2017-07-08T00:03:11.182Z,22.95
2017-07-08T00:03:15.466Z,23.00
2017-07-08T00:03:19.951Z,23.15
2017-07-08T00:03:24.290Z,23.30
2017-07-08T00:03:28.562Z,23.70
2017-07-08T00:03:32.828Z,23.80
2017-07-08T00:03:37.115Z,23.85
2017-07-08T00:03:41.392Z,23.90
2017-07-08T00:03:45.702Z,23.95
2017-07-08T00:03:49.973Z,24.00
2017-07-08T00:03:54.690Z,24.00
2017-07-08T00:03:58.933Z,23.75
2017-07-08T00:04:03.223Z,23.50
2017-07-08T00:04:07.482Z,23.25
2017-07-08T00:04:11.768Z,23.00
2017-07-08T00:04:16.095Z,23.17
2017-07-08T00:04:20.353Z,23.20
2017-07-08T00:04:24.623Z,23.15
2017-07-08T00:04:28.882Z,23.30
2017-07-08T00:04:33.198Z,23.30
2017-07-08T00:04:37.626Z,23.30
2017-07-08T00:04:41.967Z,23.50
2017-07-08T00:04:46.247Z,23.50
2017-07-08T00:04:50.499Z,23.45
2017-07-08T00:04:54.781Z,23.50
2017-07-08T00:04:59.071Z,24.00
2017-07-08T00:05:04.140Z,24.15
2017-07-08T00:05:08.502Z,24.60
2017-07-08T00:05:12.771Z,24.85
2017-07-08T00:05:17.075Z,24.70
2017-07-08T00:05:21.333Z,24.70
2017-07-08T00:05:25.604Z,24.60
2017-07-08T00:05:30.632Z,24.23
2017-07-08T00:05:34.909Z,24.33
2017-07-08T00:05:39.733Z,24.30
2017-07-08T00:05:44.746Z,24.50
2017-07-08T00:05:49.798Z,24.40
2017-07-08T00:05:54.067Z,23.83
2017-07-08T00:05:59.119Z,23.75
2017-07-08T00:06:03.389Z,23.67
2017-07-08T00:06:08.422Z,23.50
2017-07-08T00:06:12.698Z,23.40
2017-07-08T00:06:17.742Z,23.40
2017-07-08T00:06:22.000Z,23.37
2017-07-08T00:06:26.255Z,23.30
2017-07-08T00:06:30.522Z,23.40
2017-07-08T00:06:35.541Z,23.47
2017-07-08T00:06:40.593Z,23.53
2017-07-08T00:06:44.866Z,23.33
2017-07-08T00:06:49.125Z,23.65
2017-07-08T00:06:53.400Z,23.90
2017-07-08T00:06:57.675Z,23.97
2017-07-08T00:07:01.953Z,24.30
2017-07-08T00:07:06.996Z,24.60
2017-07-08T00:07:11.258Z,24.73
2017-07-08T00:07:15.551Z,25.07
2017-07-08T00:07:19.830Z,25.15
2017-07-08T00:07:24.094Z,25.50
2017-07-08T00:07:28.352Z,25.55
2017-07-08T00:07:32.650Z,25.40
2017-07-08T00:07:36.917Z,25.30
2017-07-08T00:07:41.187Z,25.45
2017-07-08T00:07:46.223Z,25.70
2017-07-08T00:07:50.490Z,25.73
2017-07-08T00:07:55.588Z,26.15
2017-07-08T00:07:59.860Z,26.13
2017-07-08T00:08:04.114Z,26.00
2017-07-08T00:08:09.142Z,25.90
2017-07-08T00:08:14.195Z,25.80
2017-07-08T00:08:18.469Z,25.70
2017-07-08T00:08:22.767Z,25.60
2017-07-08T00:08:27.790Z,25.60
2017-07-08T00:08:32.042Z,25.70
2017-07-08T00:08:36.325Z,25.90
2017-07-08T00:08:40.582Z,25.70
2017-07-08T00:08:45.618Z,25.40
2017-07-08T00:08:49.895Z,25.33
2017-07-08T00:08:54.908Z,24.87
2017-07-08T00:08:59.937Z,24.73
2017-07-08T00:09:04.982Z,24.80
2017-07-08T00:09:09.270Z,24.83
2017-07-08T00:09:14.292Z,24.80
2017-07-08T00:09:18.572Z,24.77
2017-07-08T00:09:23.584Z,24.35
2017-07-08T00:09:27.851Z,24.43
2017-07-08T00:09:32.118Z,24.63
2017-07-08T00:09:36.401Z,24.40
2017-07-08T00:09:40.709Z,24.70
2017-07-08T00:09:45.730Z,24.87
2017-07-08T00:09:50.010Z,25.00
2017-07-08T00:09:55.170Z,24.95
2017-07-08T00:09:59.431Z,24.77
2017-07-08T00:10:03.701Z,24.50
2017-07-08T00:10:07.980Z,24.63
2017-07-08T00:10:12.254Z,24.75
2017-07-08T00:10:16.519Z,24.85
2017-07-08T00:10:21.573Z,25.00
2017-07-08T00:10:25.843Z,25.40
2017-07-08T00:10:30.144Z,25.30
2017-07-08T00:10:34.403Z,25.60
2017-07-08T00:10:38.664Z,25.50
2017-07-08T00:10:43.698Z,25.47
2017-07-08T00:10:47.981Z,25.20
2017-07-08T00:10:53.028Z,25.50
2017-07-08T00:10:57.344Z,25.93
2017-07-08T00:11:01.617Z,26.30
2017-07-08T00:11:05.898Z,26.40
2017-07-08T00:11:10.195Z,26.50
2017-07-08T00:11:15.316Z,26.30
2017-07-08T00:11:20.366Z,26.47
2017-07-08T00:11:24.678Z,26.35
2017-07-08T00:11:28.963Z,26.40
2017-07-08T00:11:33.259Z,26.30
2017-07-08T00:11:38.435Z,26.45
2017-07-08T00:11:42.730Z,26.67
2017-07-08T00:11:47.012Z,26.95
2017-07-08T00:11:51.311Z,27.10
2017-07-08T00:11:55.551Z,27.07
2017-07-08T00:11:59.822Z,26.90
2017-07-08T00:12:04.072Z,26.90
2017-07-08T00:12:09.140Z,26.80
2017-07-08T00:12:13.419Z,27.40
2017-07-08T00:12:17.690Z,27.60
2017-07-08T00:12:22.832Z,27.65
2017-07-08T00:12:27.082Z,27.60
2017-07-08T00:12:31.335Z,27.60
2017-07-08T00:12:35.613Z,27.53
2017-07-08T00:12:39.886Z,27.30
2017-07-08T00:12:44.171Z,27.50
2017-07-08T00:12:48.459Z,27.47
2017-07-08T00:12:52.719Z,27.10
2017-07-08T00:12:57.765Z,27.10
2017-07-08T00:13:02.029Z,27.03
2017-07-08T00:13:07.192Z,26.80
2017-07-08T00:13:11.457Z,26.90
2017-07-08T00:13:16.498Z,26.80
2017-07-08T00:13:20.780Z,26.97
2017-07-08T00:13:25.810Z,27.40
2017-07-08T00:13:30.070Z,27.67
2017-07-08T00:13:34.359Z,28.20
2017-07-08T00:13:38.641Z,28.50
2017-07-08T00:13:42.951Z,28.60
2017-07-08T00:13:47.298Z,28.77
2017-07-08T00:13:52.343Z,28.75
2017-07-08T00:13:56.612Z,29.23
2017-07-08T00:14:00.858Z,29.80
2017-07-08T00:14:05.109Z,30.43
2017-07-08T00:14:10.141Z,30.35
2017-07-08T00:14:15.214Z,30.43
2017-07-08T00:14:19.482Z,30.30
2017-07-08T00:14:23.747Z,30.35
2017-07-08T00:14:27.992Z,30.60
2017-07-08T00:14:32.288Z,30.67
2017-07-08T00:14:36.567Z,30.95
2017-07-08T00:14:40.821Z,30.70
2017-07-08T00:14:45.098Z,30.47
2017-07-08T00:14:49.357Z,30.55
2017-07-08T00:14:54.399Z,30.80
2017-07-08T00:14:58.659Z,30.80
2017-07-08T00:15:03.711Z,30.60
2017-07-08T00:15:08.088Z,30.50
2017-07-08T00:15:12.344Z,30.70
2017-07-08T00:15:16.604Z,30.40
2017-07-08T00:15:21.632Z,30.23
2017-07-08T00:15:25.909Z,29.97
2017-07-08T00:15:30.966Z,29.45
2017-07-08T00:15:35.226Z,29.20
2017-07-08T00:15:39.493Z,29.45
2017-07-08T00:15:43.774Z,29.50
2017-07-08T00:15:48.080Z,29.70
2017-07-08T00:15:52.367Z,29.45
2017-07-08T00:15:56.640Z,29.40
2017-07-08T00:16:01.692Z,29.30
2017-07-08T00:16:05.945Z,29.20
2017-07-08T00:16:10.992Z,29.00
2017-07-08T00:16:15.296Z,29.37
2017-07-08T00:16:20.316Z,29.60
2017-07-08T00:16:24.587Z,29.30
2017-07-08T00:16:28.846Z,29.37
2017-07-08T00:16:33.127Z,29.35
2017-07-08T00:16:37.404Z,28.85
2017-07-08T00:16:42.427Z,28.60
2017-07-08T00:16:47.454Z,28.47
2017-07-08T00:16:51.740Z,28.33
2017-07-08T00:16:56.799Z,28.35
2017-07-08T00:17:01.047Z,28.27
2017-07-08T00:17:05.310Z,28.15
2017-07-08T00:17:09.593Z,28.47
2017-07-08T00:17:13.844Z,28.35
2017-07-08T00:17:18.101Z,28.50
2017-07-08T00:17:22.357Z,28.75
2017-07-08T00:17:26.648Z,29.07
2017-07-08T00:17:30.932Z,29.50
2017-07-08T00:17:35.197Z,29.55
2017-07-08T00:17:39.525Z,29.97
2017-07-08T00:17:43.808Z,30.25
2017-07-08T00:17:48.093Z,30.40
2017-07-08T00:17:52.392Z,30.40
2017-07-08T00:17:56.662Z,30.53
2017-07-08T00:18:01.693Z,30.60
2017-07-08T00:18:06.723Z,30.60
2017-07-08T00:18:11.002Z,30.40
2017-07-08T00:18:16.017Z,30.55
2017-07-08T00:18:21.045Z,30.70
2017-07-08T00:18:25.377Z,30.75
2017-07-08T00:18:29.608Z,30.40
2017-07-08T00:18:33.875Z,30.50
2017-07-08T00:18:38.138Z,30.50
2017-07-08T00:18:43.155Z,30.40
2017-07-08T00:18:48.176Z,30.20
2017-07-08T00:18:53.210Z,30.37
2017-07-08T00:18:57.501Z,30.27
2017-07-08T00:19:02.559Z,30.10
2017-07-08T00:19:06.791Z,30.30
2017-07-08T00:19:11.072Z,30.30
2017-07-08T00:19:15.359Z,30.03
2017-07-08T00:19:19.617Z,29.95
2017-07-08T00:19:24.665Z,29.55
2017-07-08T00:19:28.937Z,29.57
2017-07-08T00:19:33.952Z,29.73
2017-07-08T00:19:38.320Z,29.77
2017-07-08T00:19:42.585Z,30.20
2017-07-08T00:19:46.852Z,30.45
2017-07-08T00:19:51.130Z,30.63
2017-07-08T00:19:55.398Z,31.05
2017-07-08T00:19:59.676Z,31.15
2017-07-08T00:20:03.994Z,31.40
2017-07-08T00:20:08.258Z,31.60
2017-07-08T00:20:12.514Z,31.80
2017-07-08T00:20:16.767Z,31.95
2017-07-08T00:20:21.043Z,31.70
2017-07-08T00:20:25.288Z,32.00
2017-07-08T00:20:29.544Z,32.20
2017-07-08T00:20:33.810Z,32.00
2017-07-08T00:20:38.100Z,32.00
2017-07-08T00:20:42.382Z,31.80
2017-07-08T00:20:46.657Z,31.50
2017-07-08T00:20:50.946Z,31.27
2017-07-08T00:20:55.203Z,31.10
2017-07-08T00:20:59.463Z,31.45
2017-07-08T00:21:03.742Z,31.35
2017-07-08T00:21:08.017Z,31.23
2017-07-08T00:21:12.269Z,30.95
2017-07-08T00:21:16.520Z,30.85
2017-07-08T00:21:20.801Z,31.07
2017-07-08T00:21:25.076Z,30.95
2017-07-08T00:21:29.337Z,30.65
2017-07-08T00:21:33.639Z,30.60
2017-07-08T00:21:37.932Z,30.33
2017-07-08T00:21:42.196Z,30.15
2017-07-08T00:21:46.439Z,29.95
2017-07-08T00:21:50.703Z,29.90
2017-07-08T00:21:54.969Z,29.75
2017-07-08T00:21:59.234Z,29.25
2017-07-08T00:22:03.491Z,29.20
2017-07-08T00:22:07.762Z,29.30
2017-07-08T00:22:12.068Z,29.10
2017-07-08T00:22:16.341Z,29.45
2017-07-08T00:22:20.589Z,29.30
2017-07-08T00:22:24.876Z,29.30
2017-07-08T00:22:29.924Z,29.30
2017-07-08T00:22:34.405Z,29.13
2017-07-08T00:22:39.442Z,29.23
2017-07-08T00:22:43.722Z,29.50
2017-07-08T00:22:48.743Z,29.50
2017-07-08T00:22:53.003Z,29.73
2017-07-08T00:22:57.263Z,29.80
2017-07-08T00:23:01.548Z,29.67
2017-07-08T00:23:06.632Z,29.50
2017-07-08T00:23:10.883Z,29.80
2017-07-08T00:23:15.147Z,29.85
2017-07-08T00:23:20.207Z,29.63
2017-07-08T00:23:24.488Z,29.70
2017-07-08T00:23:29.511Z,29.95
2017-07-08T00:23:33.767Z,30.10
2017-07-08T00:23:38.067Z,30.10
2017-07-08T00:23:42.331Z,29.80
2017-07-08T00:23:46.611Z,29.65
2017-07-08T00:23:51.650Z,29.60
2017-07-08T00:23:55.896Z,29.67
2017-07-08T00:24:00.166Z,29.95
2017-07-08T00:24:04.441Z,30.23
2017-07-08T00:24:08.720Z,30.60
2017-07-08T00:24:13.755Z,30.45
2017-07-08T00:24:18.020Z,30.53
2017-07-08T00:24:22.315Z,30.87
2017-07-08T00:24:26.591Z,31.00
2017-07-08T00:24:30.840Z,31.35
2017-07-08T00:24:35.116Z,31.80
2017-07-08T00:24:39.382Z,32.25
2017-07-08T00:24:43.660Z,32.30
2017-07-08T00:24:47.912Z,32.60
2017-07-08T00:24:52.188Z,32.73
2017-07-08T00:24:56.859Z,32.60
2017-07-08T00:25:01.890Z,32.57
2017-07-08T00:25:06.175Z,32.37
2017-07-08T00:25:11.202Z,31.75
2017-07-08T00:25:15.522Z,32.23
2017-07-08T00:25:19.783Z,32.40
2017-07-08T00:25:24.855Z,32.20
2017-07-08T00:25:29.136Z,32.03
2017-07-08T00:25:33.442Z,31.70
2017-07-08T00:25:37.723Z,31.55
2017-07-08T00:25:42.771Z,31.97
2017-07-08T00:25:47.049Z,32.20
2017-07-08T00:25:51.309Z,32.10
2017-07-08T00:25:55.578Z,32.20
2017-07-08T00:25:59.842Z,32.23
2017-07-08T00:26:04.886Z,32.20
2017-07-08T00:26:09.154Z,32.33
2017-07-08T00:26:14.190Z,32.25
2017-07-08T00:26:18.439Z,32.20
2017-07-08T00:26:22.733Z,32.10
2017-07-08T00:26:26.995Z,32.07
2017-07-08T00:26:31.256Z,32.35
2017-07-08T00:26:35.558Z,32.10
2017-07-08T00:26:40.228Z,31.83
2017-07-08T00:26:44.485Z,31.50
2017-07-08T00:26:49.682Z,31.40
2017-07-08T00:26:53.964Z,31.17
2017-07-08T00:26:58.238Z,30.80
2017-07-08T00:27:02.501Z,30.85
2017-07-08T00:27:07.583Z,31.10
2017-07-08T00:27:11.864Z,31.03
2017-07-08T00:27:16.116Z,31.30
2017-07-08T00:27:20.478Z,31.15
2017-07-08T00:27:26.752Z,31.63
2017-07-08T00:27:31.018Z,31.27
2017-07-08T00:27:35.282Z,31.15
2017-07-08T00:27:40.309Z,31.40
2017-07-08T00:27:45.350Z,31.43
2017-07-08T00:27:49.608Z,31.70
2017-07-08T00:27:54.677Z,32.30
2017-07-08T00:27:58.930Z,32.40
2017-07-08T00:28:03.199Z,32.35
2017-07-08T00:28:07.471Z,32.63
2017-07-08T00:28:11.730Z,32.60
2017-07-08T00:28:15.981Z,32.40
2017-07-08T00:28:20.258Z,32.75
2017-07-08T00:28:24.552Z,32.47
2017-07-08T00:28:28.793Z,32.45
2017-07-08T00:28:33.059Z,32.50
2017-07-08T00:28:37.337Z,32.23
2017-07-08T00:28:41.636Z,32.20
2017-07-08T00:28:45.899Z,32.15
2017-07-08T00:28:50.158Z,32.30
2017-07-08T00:28:54.439Z,31.77
2017-07-08T00:28:58.723Z,31.60
2017-07-08T00:29:02.991Z,31.80
2017-07-08T00:29:07.277Z,31.97
2017-07-08T00:29:11.529Z,31.90
2017-07-08T00:29:15.789Z,31.85
2017-07-08T00:29:20.053Z,31.50
2017-07-08T00:29:24.344Z,31.50
2017-07-08T00:29:28.599Z,31.75
2017-07-08T00:29:32.876Z,32.05
2017-07-08T00:29:37.120Z,32.53
2017-07-08T00:29:41.384Z,32.85
2017-07-08T00:29:45.639Z,33.15
2017-07-08T00:29:49.910Z,33.00
2017-07-08T00:29:54.185Z,33.20
2017-07-08T00:29:58.486Z,33.35
2017-07-08T00:30:02.745Z,33.10
2017-07-08T00:30:07.019Z,32.93
2017-07-08T00:30:11.312Z,33.15
2017-07-08T00:30:15.570Z,33.35
2017-07-08T00:30:19.834Z,33.55
2017-07-08T00:30:24.100Z,33.87
2017-07-08T00:30:28.367Z,33.80
2017-07-08T00:30:32.675Z,33.75
2017-07-08T00:30:36.942Z,33.60
2017-07-08T00:30:41.209Z,33.70
2017-07-08T00:30:45.486Z,34.05
2017-07-08T00:30:49.742Z,34.10
2017-07-08T00:30:54.018Z,34.27
2017-07-08T00:30:58.336Z,34.30
2017-07-08T00:31:02.628Z,34.30
2017-07-08T00:31:06.928Z,34.37
2017-07-08T00:31:11.209Z,34.20
2017-07-08T00:31:15.489Z,34.05
2017-07-08T00:31:19.761Z,34.15
2017-07-08T00:31:24.044Z,33.90
2017-07-08T00:31:28.284Z,33.65
2017-07-08T00:31:32.546Z,33.40
2017-07-08T00:31:36.833Z,33.67
2017-07-08T00:31:41.079Z,33.20
2017-07-08T00:31:45.350Z,32.50
2017-07-08T00:31:49.597Z,32.30
2017-07-08T00:31:53.886Z,32.40
2017-07-08T00:31:58.175Z,32.85
2017-07-08T00:32:03.211Z,33.15
2017-07-08T00:32:07.463Z,33.10
2017-07-08T00:32:11.754Z,33.20
2017-07-08T00:32:16.026Z,33.20
2017-07-08T00:32:20.283Z,33.10
2017-07-08T00:32:25.309Z,33.00
2017-07-08T00:32:30.344Z,33.83
2017-07-08T00:32:34.628Z,33.77
2017-07-08T00:32:39.656Z,33.75
2017-07-08T00:32:43.931Z,34.33
2017-07-08T00:32:48.184Z,34.70
2017-07-08T00:32:52.480Z,34.50
2017-07-08T00:32:56.724Z,34.40
2017-07-08T00:33:01.003Z,34.45
2017-07-08T00:33:05.282Z,34.35
2017-07-08T00:33:09.566Z,34.33
2017-07-08T00:33:13.822Z,34.35
2017-07-08T00:33:18.096Z,34.30
2017-07-08T00:33:22.369Z,34.75
2017-07-08T00:33:26.645Z,34.55
2017-07-08T00:33:30.914Z,33.80
2017-07-08T00:33:35.193Z,33.75
2017-07-08T00:33:39.493Z,33.50
2017-07-08T00:33:43.760Z,33.05
2017-07-08T00:33:48.044Z,32.85
2017-07-08T00:33:52.394Z,32.97
2017-07-08T00:33:56.661Z,32.55
2017-07-08T00:34:01.690Z,32.25
2017-07-08T00:34:05.947Z,32.30
2017-07-08T00:34:10.316Z,32.63
2017-07-08T00:34:14.565Z,32.80
2017-07-08T00:34:19.609Z,32.70
2017-07-08T00:34:24.619Z,32.57
2017-07-08T00:34:29.659Z,33.00
2017-07-08T00:34:33.931Z,33.37
2017-07-08T00:34:38.219Z,34.10
2017-07-08T00:34:42.468Z,34.45
2017-07-08T00:34:46.746Z,34.75
2017-07-08T00:34:51.027Z,34.80
2017-07-08T00:34:55.318Z,35.23
2017-07-08T00:34:59.602Z,35.40
2017-07-08T00:35:03.879Z,35.40
2017-07-08T00:35:08.178Z,35.30
2017-07-08T00:35:12.440Z,35.05
2017-07-08T00:35:17.489Z,35.10
2017-07-08T00:35:21.753Z,35.33
2017-07-08T00:35:26.782Z,35.10
2017-07-08T00:35:31.821Z,34.70
2017-07-08T00:35:36.072Z,33.97
2017-07-08T00:35:40.348Z,33.90
2017-07-08T00:35:44.650Z,33.60
2017-07-08T00:35:48.924Z,33.40
2017-07-08T00:35:53.186Z,33.05
2017-07-08T00:35:57.454Z,32.90
2017-07-08T00:36:01.742Z,32.70
2017-07-08T00:36:05.999Z,32.77
2017-07-08T00:36:11.055Z,32.70
2017-07-08T00:36:15.323Z,32.77
2017-07-08T00:36:20.369Z,32.60
2017-07-08T00:36:24.628Z,32.67
2017-07-08T00:36:29.694Z,32.47
2017-07-08T00:36:33.973Z,32.50
2017-07-08T00:36:38.257Z,32.35
2017-07-08T00:36:43.301Z,31.85
2017-07-08T00:36:47.578Z,31.90
2017-07-08T00:36:52.641Z,31.67
2017-07-08T00:36:56.938Z,32.00
2017-07-08T00:37:01.197Z,32.30
2017-07-08T00:37:06.214Z,32.50
2017-07-08T00:37:10.471Z,32.50
2017-07-08T00:37:14.779Z,32.27
2017-07-08T00:37:19.051Z,32.35
2017-07-08T00:37:23.315Z,32.15
2017-07-08T00:37:28.337Z,32.63
2017-07-08T00:37:33.365Z,33.03
2017-07-08T00:37:37.668Z,33.13
2017-07-08T00:37:42.684Z,33.55
2017-07-08T00:37:46.952Z,34.10
2017-07-08T00:37:51.213Z,34.70
2017-07-08T00:37:55.492Z,34.53
2017-07-08T00:37:59.751Z,34.50
2017-07-08T00:38:04.008Z,34.40
2017-07-08T00:38:08.267Z,34.70
2017-07-08T00:38:12.556Z,34.70
2017-07-08T00:38:16.813Z,34.70
2017-07-08T00:38:21.086Z,34.80
2017-07-08T00:38:26.138Z,34.77
2017-07-08T00:38:30.441Z,34.87
2017-07-08T00:38:34.693Z,35.05
2017-07-08T00:38:39.719Z,35.40
2017-07-08T00:38:44.746Z,35.47
2017-07-08T00:38:49.001Z,34.70
2017-07-08T00:38:53.266Z,34.57
2017-07-08T00:38:57.541Z,34.55
2017-07-08T00:39:02.570Z,34.40
2017-07-08T00:39:06.837Z,33.67
2017-07-08T00:39:11.102Z,33.30
2017-07-08T00:39:15.396Z,33.33
2017-07-08T00:39:19.638Z,33.35
2017-07-08T00:39:23.906Z,33.25
2017-07-08T00:39:28.194Z,33.10
2017-07-08T00:39:32.442Z,32.80
2017-07-08T00:39:36.711Z,32.40
2017-07-08T00:39:40.989Z,32.20
2017-07-08T00:39:45.243Z,32.03
2017-07-08T00:39:49.510Z,32.30
2017-07-08T00:39:53.789Z,32.50
2017-07-08T00:39:58.043Z,32.73
2017-07-08T00:40:02.340Z,33.00
2017-07-08T00:40:06.612Z,33.85
2017-07-08T00:40:10.851Z,34.05
2017-07-08T00:40:15.900Z,34.67
2017-07-08T00:40:20.182Z,35.00
2017-07-08T00:40:25.244Z,35.35
2017-07-08T00:40:29.521Z,35.63
2017-07-08T00:40:33.779Z,35.65
2017-07-08T00:40:38.065Z,35.70
2017-07-08T00:40:42.324Z,35.60
2017-07-08T00:40:46.607Z,35.70
2017-07-08T00:40:51.651Z,35.80
2017-07-08T00:40:55.924Z,35.53
2017-07-08T00:41:00.177Z,35.60
2017-07-08T00:41:04.441Z,35.25
2017-07-08T00:41:08.708Z,35.20
2017-07-08T00:41:12.977Z,35.03
2017-07-08T00:41:17.225Z,34.50
2017-07-08T00:41:22.257Z,34.50
2017-07-08T00:41:26.941Z,34.25
2017-07-08T00:41:31.205Z,34.13
2017-07-08T00:41:35.471Z,34.25
2017-07-08T00:41:39.750Z,34.57
2017-07-08T00:41:44.789Z,34.70
2017-07-08T00:41:49.040Z,34.80
2017-07-08T00:41:53.307Z,35.00
2017-07-08T00:41:57.556Z,35.20
2017-07-08T00:42:01.827Z,35.20
2017-07-08T00:42:06.120Z,35.25
2017-07-08T00:42:10.377Z,35.55
2017-07-08T00:42:15.446Z,35.53
2017-07-08T00:42:19.718Z,35.30
2017-07-08T00:42:23.985Z,35.35
2017-07-08T00:42:28.246Z,35.50
2017-07-08T00:42:32.517Z,35.55
2017-07-08T00:42:36.812Z,35.50
2017-07-08T00:42:41.078Z,35.30
2017-07-08T00:42:45.350Z,35.35
2017-07-08T00:42:49.634Z,35.03
2017-07-08T00:42:53.910Z,34.70
2017-07-08T00:42:58.963Z,34.35
2017-07-08T00:43:03.238Z,34.35
2017-07-08T00:43:07.492Z,34.10
2017-07-08T00:43:11.788Z,34.00
2017-07-08T00:43:16.072Z,34.00
2017-07-08T00:43:20.355Z,34.00
2017-07-08T00:43:24.639Z,33.93
2017-07-08T00:43:28.915Z,34.30
2017-07-08T00:43:33.175Z,34.40
2017-07-08T00:43:37.456Z,34.50
2017-07-08T00:43:41.718Z,34.60
2017-07-08T00:43:46.757Z,34.60
2017-07-08T00:43:51.041Z,34.60
2017-07-08T00:43:56.084Z,34.80
2017-07-08T00:44:00.351Z,34.83
2017-07-08T00:44:04.599Z,35.00
2017-07-08T00:44:08.880Z,34.85
2017-07-08T00:44:13.138Z,34.45
2017-07-08T00:44:17.437Z,34.47
2017-07-08T00:44:21.682Z,34.80
2017-07-08T00:44:25.957Z,34.60
2017-07-08T00:44:30.986Z,34.60
2017-07-08T00:44:36.037Z,34.47
2017-07-08T00:44:40.312Z,34.50
2017-07-08T00:44:44.632Z,34.70
2017-07-08T00:44:48.880Z,34.95
2017-07-08T00:44:53.168Z,34.87
2017-07-08T00:44:57.441Z,34.85
2017-07-08T00:45:01.713Z,34.80
2017-07-08T00:45:06.735Z,34.75
2017-07-08T00:45:10.992Z,35.25
2017-07-08T00:45:15.255Z,35.40
2017-07-08T00:45:19.552Z,35.25
2017-07-08T00:45:23.823Z,35.20
2017-07-08T00:45:28.873Z,35.20
2017-07-08T00:45:33.170Z,35.30
2017-07-08T00:45:37.434Z,35.50
2017-07-08T00:45:41.721Z,35.25
2017-07-08T00:45:46.013Z,35.03
2017-07-08T00:45:50.281Z,34.55
2017-07-08T00:45:54.542Z,34.35
2017-07-08T00:45:59.570Z,34.15
2017-07-08T00:46:04.598Z,33.47
2017-07-08T00:46:08.847Z,32.70
2017-07-08T00:46:13.118Z,32.45
2017-07-08T00:46:17.389Z,32.60
2017-07-08T00:46:22.407Z,32.40
2017-07-08T00:46:26.674Z,32.43
2017-07-08T00:46:30.945Z,32.17
2017-07-08T00:46:35.214Z,32.00
2017-07-08T00:46:40.228Z,32.10
2017-07-08T00:46:45.272Z,32.00
2017-07-08T00:46:49.526Z,32.03
2017-07-08T00:46:53.822Z,32.10
2017-07-08T00:46:58.097Z,32.40
2017-07-08T00:47:02.388Z,32.70
2017-07-08T00:47:06.665Z,33.47
2017-07-08T00:47:10.928Z,33.55
2017-07-08T00:47:15.253Z,33.10
2017-07-08T00:47:20.301Z,32.85
2017-07-08T00:47:24.591Z,32.65
2017-07-08T00:47:28.867Z,32.80
2017-07-08T00:47:33.122Z,32.40
2017-07-08T00:47:37.399Z,32.05
2017-07-08T00:47:41.676Z,31.97
2017-07-08T00:47:45.958Z,32.25
2017-07-08T00:47:50.208Z,32.50
2017-07-08T00:47:54.499Z,32.47
2017-07-08T00:47:58.737Z,32.40
2017-07-08T00:48:02.999Z,32.40
2017-07-08T00:48:07.261Z,32.35
2017-07-08T00:48:11.567Z,32.47
2017-07-08T00:48:15.844Z,32.55
2017-07-08T00:48:20.113Z,33.05
2017-07-08T00:48:24.398Z,32.80
2017-07-08T00:48:28.640Z,32.30
2017-07-08T00:48:32.912Z,32.60
2017-07-08T00:48:37.179Z,32.80
2017-07-08T00:48:41.457Z,32.97
2017-07-08T00:48:45.711Z,32.90
2017-07-08T00:48:49.968Z,32.85
2017-07-08T00:48:54.229Z,32.90
2017-07-08T00:48:58.513Z,32.60
2017-07-08T00:49:03.003Z,32.60
2017-07-08T00:49:07.271Z,32.60
2017-07-08T00:49:11.597Z,32.90
2017-07-08T00:49:15.879Z,33.30
2017-07-08T00:49:20.170Z,33.00
2017-07-08T00:49:24.459Z,33.13
2017-07-08T00:49:28.721Z,33.40
2017-07-08T00:49:32.986Z,33.60
2017-07-08T00:49:37.265Z,33.67
2017-07-08T00:49:41.549Z,33.70
2017-07-08T00:49:45.834Z,33.40
2017-07-08T00:49:50.096Z,33.30
2017-07-08T00:49:54.384Z,33.20
2017-07-08T00:49:58.697Z,33.30
2017-07-08T00:50:03.738Z,33.10
2017-07-08T00:50:08.013Z,32.93
2017-07-08T00:50:13.038Z,32.10
2017-07-08T00:50:18.068Z,31.73
2017-07-08T00:50:22.354Z,31.60
2017-07-08T00:50:26.689Z,31.50
2017-07-08T00:50:30.947Z,31.20
2017-07-08T00:50:35.967Z,30.80
2017-07-08T00:50:41.006Z,30.43
2017-07-08T00:50:45.277Z,30.77
2017-07-08T00:50:49.543Z,30.70
2017-07-08T00:50:53.811Z,30.60
2017-07-08T00:50:58.096Z,30.67
2017-07-08T00:51:02.374Z,30.85
2017-07-08T00:51:06.615Z,30.90
2017-07-08T00:51:10.913Z,31.10
2017-07-08T00:51:15.183Z,31.25
2017-07-08T00:51:20.212Z,31.30
2017-07-08T00:51:25.622Z,31.07
2017-07-08T00:51:30.707Z,30.88
2017-07-08T00:51:34.994Z,30.83
2017-07-08T00:51:39.258Z,30.70
2017-07-08T00:51:44.357Z,30.25
2017-07-08T00:51:48.613Z,30.07
2017-07-08T00:51:52.878Z,30.00
2017-07-08T00:51:57.918Z,30.00
2017-07-08T00:52:02.177Z,29.57
2017-07-08T00:52:06.437Z,29.25
2017-07-08T00:52:10.708Z,28.80
2017-07-08T00:52:15.767Z,28.45
2017-07-08T00:52:20.029Z,28.47
2017-07-08T00:52:25.067Z,28.40
2017-07-08T00:52:29.322Z,28.50
2017-07-08T00:52:33.599Z,28.30
2017-07-08T00:52:37.881Z,28.50
2017-07-08T00:52:42.142Z,28.65
2017-07-08T00:52:47.172Z,29.10
2017-07-08T00:52:51.830Z,29.00
2017-07-08T00:52:56.081Z,28.80
2017-07-08T00:53:00.360Z,28.70
2017-07-08T00:53:04.634Z,28.80
2017-07-08T00:53:08.908Z,29.30
2017-07-08T00:53:13.184Z,29.70
2017-07-08T00:53:17.460Z,29.90
2017-07-08T00:53:21.715Z,29.90
2017-07-08T00:53:26.009Z,29.90
2017-07-08T00:53:30.277Z,30.10
2017-07-08T00:53:34.541Z,30.00
2017-07-08T00:53:38.817Z,29.90
2017-07-08T00:53:43.074Z,29.95
2017-07-08T00:53:48.122Z,29.60
2017-07-08T00:53:52.365Z,29.47
2017-07-08T00:53:56.730Z,29.75
2017-07-08T00:54:00.981Z,30.00
2017-07-08T00:54:05.269Z,30.05
2017-07-08T00:54:09.551Z,29.97
2017-07-08T00:54:13.801Z,29.60
2017-07-08T00:54:18.842Z,29.60
2017-07-08T00:54:23.105Z,29.57
2017-07-08T00:54:27.378Z,29.70
2017-07-08T00:54:31.624Z,29.90
2017-07-08T00:54:35.904Z,29.80
2017-07-08T00:54:40.151Z,29.70
2017-07-08T00:54:44.434Z,29.70
2017-07-08T00:54:49.473Z,29.75
2017-07-08T00:54:53.734Z,29.83
2017-07-08T00:54:58.764Z,29.55
2017-07-08T00:55:03.064Z,29.53
2017-07-08T00:55:08.101Z,29.63
2017-07-08T00:55:12.384Z,29.97
2017-07-08T00:55:16.656Z,30.05
2017-07-08T00:55:20.912Z,30.25
2017-07-08T00:55:25.194Z,30.43
2017-07-08T00:55:29.449Z,30.20
2017-07-08T00:55:33.727Z,30.25
2017-07-08T00:55:37.998Z,30.20
2017-07-08T00:55:42.253Z,30.05
2017-07-08T00:55:46.496Z,30.05
2017-07-08T00:55:50.759Z,29.80
2017-07-08T00:55:55.060Z,30.07
2017-07-08T00:55:59.358Z,30.00
2017-07-08T00:56:03.612Z,30.15
2017-07-08T00:56:07.887Z,30.30
2017-07-08T00:56:12.901Z,30.20
2017-07-08T00:56:17.958Z,30.07
2017-07-08T00:56:38.987Z,29.60
2017-07-08T00:56:43.261Z,26.50
2017-07-08T00:56:47.525Z,26.85
2017-07-08T00:56:51.810Z,27.90
2017-07-08T00:56:56.102Z,27.70
2017-07-08T00:57:00.362Z,28.45
2017-07-08T00:57:04.636Z,28.70
2017-07-08T00:57:08.921Z,28.67
2017-07-08T00:57:13.993Z,29.00